Time;durP1;ratioP1;P1;durP2;ratioP2;P2;SDS_P1;SDS_P2;PMS_P1;PMS_P2;Temp;Humidity;BMP_temperature;BMP_pressure;BME280_temperature;BME280_humidity;BME280_pressure;Samples;Min_cycle;Max_cycle;Signal;HPM_P1;HPM_P2
2022/04/08 00:00:17;;;;;;;5.32;4.82;;;21.80;70.30;;;;;;6247422;27;88318;-69
2022/04/08 00:03:19;;;;;;;4.97;4.57;;;21.80;70.20;;;;;;6257873;27;90012;-69
2022/04/08 00:06:22;;;;;;;4.68;4.25;;;21.80;70.20;;;;;;6248303;27;89136;-70
2022/04/08 00:09:24;;;;;;;4.97;4.47;;;21.80;70.30;;;;;;6258360;27;89107;-69
2022/04/08 00:12:26;;;;;;;4.97;4.55;;;21.80;70.30;;;;;;6259840;27;89000;-70
2022/04/08 00:15:33;;;;;;;4.50;4.10;;;21.80;70.30;;;;;;6249627;27;89020;-69
2022/04/08 00:18:35;;;;;;;4.57;4.18;;;21.80;70.30;;;;;;6244755;28;89066;-70
2022/04/08 00:21:37;;;;;;;4.80;4.30;;;21.80;70.30;;;;;;6258717;27;89016;-71
2022/04/08 00:24:39;;;;;;;5.00;3.97;;;21.70;70.30;;;;;;6253282;27;88426;-70
2022/04/08 00:27:43;;;;;;;4.68;4.28;;;21.80;70.40;;;;;;6258496;28;89180;-70
2022/04/08 00:30:46;;;;;;;4.75;4.35;;;21.80;70.30;;;;;;6257608;28;89220;-70
2022/04/08 00:33:48;;;;;;;4.55;4.15;;;21.70;70.30;;;;;;6251222;27;90005;-70
2022/04/08 00:36:50;;;;;;;4.70;4.22;;;21.70;70.30;;;;;;6248465;27;89119;-69
2022/04/08 00:39:52;;;;;;;4.35;3.90;;;21.70;71.20;;;;;;6258162;27;89042;-70
2022/04/08 00:42:54;;;;;;;3.92;3.53;;;21.70;70.30;;;;;;6257250;27;89232;-70
2022/04/08 00:45:57;;;;;;;4.00;3.63;;;21.70;70.30;;;;;;6257114;27;89394;-69
2022/04/08 00:48:59;;;;;;;4.32;3.58;;;21.70;70.30;;;;;;6258642;27;89091;-70
2022/04/08 00:52:02;;;;;;;3.75;3.45;;;21.70;70.30;;;;;;6234293;27;89553;-70
2022/04/08 00:55:06;;;;;;;3.60;3.30;;;21.70;70.20;;;;;;6256904;27;88668;-71
2022/04/08 00:58:08;;;;;;;3.70;3.40;;;21.70;70.30;;;;;;6257324;27;89052;-70
2022/04/08 01:01:11;;;;;;;3.88;3.58;;;21.70;71.10;;;;;;6256726;27;89119;-69
2022/04/08 01:04:13;;;;;;;3.72;3.42;;;21.70;70.20;;;;;;6244859;27;90253;-70
2022/04/08 01:07:16;;;;;;;4.32;3.53;;;21.70;70.10;;;;;;6246481;27;89379;-69
2022/04/08 01:10:18;;;;;;;3.58;3.28;;;21.70;70.10;;;;;;6256698;27;89171;-70
2022/04/08 01:13:20;;;;;;;3.70;3.40;;;21.70;70.10;;;;;;6256871;27;89089;-70
2022/04/08 01:16:23;;;;;;;3.60;3.30;;;21.70;70.10;;;;;;6256226;27;89035;-69
2022/04/08 01:19:25;;;;;;;3.50;3.20;;;21.70;70.10;;;;;;6247406;27;89186;-70
2022/04/08 01:22:28;;;;;;;3.35;3.05;;;21.70;70.20;;;;;;6245135;27;89001;-69
2022/04/08 01:25:32;;;;;;;3.35;3.03;;;21.70;70.20;;;;;;6257037;27;88349;-70
2022/04/08 01:28:34;;;;;;;4.00;3.53;;;21.70;70.10;;;;;;6245905;27;88946;-70
2022/04/08 01:31:42;;;;;;;3.28;2.97;;;21.60;70.10;;;;;;6258300;27;89313;-70
2022/04/08 01:34:45;;;;;;;3.47;2.97;;;21.70;70.20;;;;;;6256091;27;90089;-70
2022/04/08 01:37:47;;;;;;;3.05;2.75;;;21.60;70.10;;;;;;6245731;27;89066;-70
2022/04/08 01:40:50;;;;;;;3.40;3.00;;;21.60;70.10;;;;;;6258273;27;89384;-69
2022/04/08 01:43:52;;;;;;;3.30;3.00;;;21.60;70.10;;;;;;6250227;27;88994;-71
2022/04/08 01:46:54;;;;;;;2.97;2.67;;;21.60;70.10;;;;;;6256686;27;89176;-70
2022/04/08 01:49:56;;;;;;;3.08;2.78;;;21.60;70.10;;;;;;6258769;27;88997;-70
2022/04/08 01:52:58;;;;;;;3.20;2.90;;;21.60;70.20;;;;;;6256187;27;89117;-71
2022/04/08 01:56:01;;;;;;;3.85;2.90;;;21.60;70.20;;;;;;6243108;27;88476;-70
2022/04/08 01:59:03;;;;;;;3.38;2.78;;;21.60;70.10;;;;;;6249570;27;89033;-70
2022/04/08 02:02:06;;;;;;;3.90;2.95;;;21.60;70.20;;;;;;6256116;27;89403;-70
2022/04/08 02:05:09;;;;;;;3.00;2.70;;;21.60;70.10;;;;;;6256458;27;90051;-70
2022/04/08 02:08:11;;;;;;;3.33;3.00;;;21.60;70.10;;;;;;6256684;27;90078;-70
2022/04/08 02:11:14;;;;;;;3.28;2.70;;;21.60;70.10;;;;;;6242240;27;89076;-70
2022/04/08 02:14:17;;;;;;;3.00;2.60;;;21.60;70.00;;;;;;6243472;28;89402;-70
2022/04/08 02:17:19;;;;;;;2.53;2.33;;;21.60;70.00;;;;;;6239273;27;89100;-70
2022/04/08 02:20:21;;;;;;;2.60;2.40;;;21.60;70.00;;;;;;6250137;27;88078;-71
2022/04/08 02:23:23;;;;;;;3.10;2.50;;;21.60;70.10;;;;;;6248122;27;89194;-70
2022/04/08 02:26:28;;;;;;;2.65;2.45;;;21.60;70.00;;;;;;6255446;27;88344;-69
2022/04/08 02:29:30;;;;;;;2.40;2.20;;;21.60;70.00;;;;;;6256435;28;89058;-69
2022/04/08 02:32:32;;;;;;;2.55;2.35;;;21.60;70.00;;;;;;6256585;27;89438;-70
2022/04/08 02:35:34;;;;;;;2.60;2.40;;;21.60;70.10;;;;;;6256211;27;89195;-69
2022/04/08 02:38:36;;;;;;;2.50;2.30;;;21.50;70.00;;;;;;6254417;27;89353;-70
2022/04/08 02:41:39;;;;;;;2.30;2.10;;;21.50;70.00;;;;;;6252515;27;89357;-69
2022/04/08 02:44:41;;;;;;;2.80;2.25;;;21.60;70.10;;;;;;6251944;27;89050;-69
2022/04/08 02:47:44;;;;;;;2.55;2.20;;;21.60;70.10;;;;;;6251751;27;89208;-70
2022/04/08 02:50:46;;;;;;;3.22;2.65;;;21.50;70.00;;;;;;6256780;27;89242;-69
2022/04/08 02:53:48;;;;;;;4.03;2.30;;;21.50;70.00;;;;;;6255010;27;88871;-69
2022/04/08 02:56:52;;;;;;;2.30;2.10;;;21.50;70.00;;;;;;6244390;27;87635;-69
2022/04/08 02:59:54;;;;;;;2.35;2.05;;;21.50;70.00;;;;;;6252498;27;89069;-69
2022/04/08 03:02:56;;;;;;;2.30;2.10;;;21.50;70.00;;;;;;6256475;27;89100;-69
2022/04/08 03:05:58;;;;;;;2.58;2.05;;;21.50;70.00;;;;;;6254568;27;90022;-70
2022/04/08 03:09:00;;;;;;;2.55;2.25;;;21.50;70.00;;;;;;6256520;27;89681;-69
2022/04/08 03:12:04;;;;;;;2.10;1.90;;;21.60;70.00;;;;;;6255495;27;88443;-69
2022/04/08 03:15:07;;;;;;;3.05;2.20;;;21.60;70.10;;;;;;6257098;27;89172;-69
2022/04/08 03:18:09;;;;;;;2.85;2.05;;;21.60;70.00;;;;;;6254321;27;89529;-69
2022/04/08 03:21:11;;;;;;;2.28;2.08;;;21.50;69.90;;;;;;6232587;27;89269;-70
2022/04/08 03:24:13;;;;;;;2.58;2.10;;;21.50;69.90;;;;;;6252988;27;89305;-69
2022/04/08 03:27:17;;;;;;;2.28;1.80;;;21.50;69.90;;;;;;6254665;27;88368;-69
2022/04/08 03:30:19;;;;;;;2.42;1.98;;;21.50;70.00;;;;;;6255937;27;88022;-69
2022/04/08 03:33:21;;;;;;;2.70;2.20;;;21.50;70.00;;;;;;6254965;27;89377;-69
2022/04/08 03:36:23;;;;;;;2.42;2.00;;;21.50;70.00;;;;;;6255015;27;89934;-69
2022/04/08 03:39:25;;;;;;;2.10;1.80;;;21.50;70.00;;;;;;6258558;27;89491;-69
2022/04/08 03:42:29;;;;;;;2.58;2.10;;;21.50;69.90;;;;;;6258320;27;89090;-70
2022/04/08 03:45:31;;;;;;;1.85;1.70;;;21.50;69.90;;;;;;6260822;27;88881;-69
2022/04/08 03:48:33;;;;;;;1.88;1.77;;;21.50;69.80;;;;;;6259773;27;89126;-68
2022/04/08 03:51:35;;;;;;;2.25;1.95;;;21.50;69.80;;;;;;6257750;27;88929;-69
2022/04/08 03:54:37;;;;;;;2.03;1.88;;;21.50;69.80;;;;;;6249358;27;88009;-69
2022/04/08 03:57:40;;;;;;;1.80;1.70;;;21.50;69.70;;;;;;6259472;27;88321;-69
2022/04/08 04:00:43;;;;;;;2.03;1.60;;;21.60;69.70;;;;;;6259223;27;89153;-69
2022/04/08 04:03:44;;;;;;;2.17;1.90;;;21.60;69.70;;;;;;6259637;27;89373;-69
2022/04/08 04:06:46;;;;;;;2.67;2.00;;;21.60;69.70;;;;;;6245243;27;90286;-69
2022/04/08 04:09:49;;;;;;;2.20;1.80;;;21.60;69.60;;;;;;6257901;27;89121;-69
2022/04/08 04:12:52;;;;;;;2.00;1.80;;;21.60;70.50;;;;;;6255650;27;89114;-70
2022/04/08 04:15:54;;;;;;;1.77;1.60;;;21.60;69.60;;;;;;6254730;27;89004;-69
2022/04/08 04:18:56;;;;;;;2.00;1.77;;;21.60;69.60;;;;;;6237223;27;89418;-69
2022/04/08 04:21:58;;;;;;;1.95;1.75;;;21.60;69.60;;;;;;6243928;27;89112;-69
2022/04/08 04:25:00;;;;;;;2.25;2.00;;;21.60;69.60;;;;;;6235762;27;89182;-70
2022/04/08 04:28:04;;;;;;;1.90;1.70;;;21.70;69.60;;;;;;6235901;27;88471;-70
2022/04/08 04:31:06;;;;;;;2.20;1.70;;;21.60;69.60;;;;;;6248036;27;88831;-69
2022/04/08 04:34:08;;;;;;;1.70;1.60;;;21.60;69.60;;;;;;6256892;27;89004;-70
2022/04/08 04:37:10;;;;;;;2.05;1.70;;;21.70;69.60;;;;;;6258264;27;90038;-70
2022/04/08 04:40:13;;;;;;;2.13;1.52;;;21.60;69.50;;;;;;6252193;27;88020;-70
2022/04/08 04:43:16;;;;;;;2.10;1.63;;;21.70;69.60;;;;;;6258660;27;89255;-69
2022/04/08 04:46:18;;;;;;;1.90;1.70;;;21.70;69.60;;;;;;6256876;27;89067;-70
2022/04/08 04:49:20;;;;;;;1.85;1.50;;;21.70;69.60;;;;;;6256444;27;88898;-69
2022/04/08 04:52:22;;;;;;;1.52;1.42;;;21.70;69.60;;;;;;6252982;27;89035;-70
2022/04/08 04:55:24;;;;;;;1.70;1.50;;;21.70;69.60;;;;;;6244964;27;89045;-67
2022/04/08 04:58:28;;;;;;;1.90;1.60;;;21.70;69.80;;;;;;6257926;28;88343;-69
2022/04/08 05:01:30;;;;;;;2.47;1.70;;;21.70;70.00;;;;;;6247273;27;89124;-69
2022/04/08 05:04:32;;;;;;;2.17;1.65;;;21.80;70.10;;;;;;6258545;27;89046;-70
2022/04/08 05:07:34;;;;;;;2.28;1.38;;;21.80;70.10;;;;;;6258053;27;90310;-69
2022/04/08 05:10:36;;;;;;;2.13;1.60;;;21.80;70.10;;;;;;6256374;27;88796;-70
2022/04/08 05:13:39;;;;;;;2.45;1.50;;;21.80;70.20;;;;;;6257122;28;89368;-70
2022/04/08 05:16:41;;;;;;;2.13;1.65;;;21.90;70.30;;;;;;6255011;28;88099;-69
2022/04/08 05:19:43;;;;;;;1.85;1.60;;;21.90;70.20;;;;;;6256055;27;89110;-70
2022/04/08 05:22:46;;;;;;;2.42;1.50;;;21.90;70.10;;;;;;6256542;27;89106;-69
2022/04/08 05:25:48;;;;;;;1.75;1.60;;;21.90;70.00;;;;;;6257396;27;89017;-70
2022/04/08 05:28:51;;;;;;;1.73;1.40;;;21.90;69.90;;;;;;6259345;27;88547;-69
2022/04/08 05:31:53;;;;;;;1.90;1.45;;;21.90;69.80;;;;;;6255103;27;89394;-69
2022/04/08 05:34:55;;;;;;;1.65;1.52;;;21.90;69.80;;;;;;6248046;27;87934;-70
2022/04/08 05:37:57;;;;;;;2.13;1.58;;;21.90;69.80;;;;;;6251423;27;90382;-69
2022/04/08 05:40:59;;;;;;;1.85;1.35;;;21.90;69.70;;;;;;6257041;27;88939;-69
2022/04/08 05:44:02;;;;;;;2.53;1.63;;;21.90;70.60;;;;;;6255637;27;89097;-70
2022/04/08 05:47:05;;;;;;;1.55;1.40;;;21.90;69.70;;;;;;6257613;27;89016;-70
2022/04/08 05:50:10;;;;;;;1.55;1.42;;;21.90;70.60;;;;;;6255787;27;88091;-70
2022/04/08 05:53:12;;;;;;;1.90;1.67;;;21.90;70.60;;;;;;6257086;27;89090;-70
2022/04/08 05:56:14;;;;;;;1.13;1.02;;;21.90;69.70;;;;;;6256602;27;89643;-70
2022/04/08 05:59:17;;;;;;;1.85;1.17;;;21.90;69.70;;;;;;6255455;27;87246;-70
2022/04/08 06:02:20;;;;;;;1.73;1.50;;;21.90;69.70;;;;;;6257741;27;89129;-70
2022/04/08 06:05:23;;;;;;;1.48;1.27;;;21.90;69.80;;;;;;6254501;28;88951;-70
2022/04/08 06:08:25;;;;;;;1.98;1.30;;;21.90;69.70;;;;;;6254451;27;90095;-70
2022/04/08 06:11:27;;;;;;;1.88;1.33;;;21.90;69.70;;;;;;6255841;27;89062;-71
2022/04/08 06:14:30;;;;;;;1.73;1.30;;;21.90;69.70;;;;;;6244304;27;89343;-69
2022/04/08 06:17:36;;;;;;;2.00;1.40;;;21.90;69.60;;;;;;6256841;27;89002;-69
2022/04/08 06:20:38;;;;;;;1.52;1.13;;;21.90;69.60;;;;;;6257482;27;89343;-70
2022/04/08 06:23:40;;;;;;;1.83;1.35;;;22.00;69.70;;;;;;6257661;27;87925;-70
2022/04/08 06:26:42;;;;;;;1.60;1.30;;;21.90;69.60;;;;;;6255393;27;89093;-71
2022/04/08 06:29:46;;;;;;;1.40;1.30;;;22.00;69.60;;;;;;6246901;27;88389;-70
2022/04/08 06:32:48;;;;;;;2.15;1.48;;;21.90;69.60;;;;;;6251948;28;89030;-70
2022/04/08 06:35:50;;;;;;;1.30;1.10;;;22.00;69.60;;;;;;6255497;28;88031;-70
2022/04/08 06:38:52;;;;;;;1.50;1.40;;;22.00;69.60;;;;;;6254778;27;90134;-70
2022/04/08 06:41:54;;;;;;;1.52;1.30;;;22.00;69.60;;;;;;6255583;27;89193;-70
2022/04/08 06:44:57;;;;;;;1.67;1.35;;;22.00;69.60;;;;;;6255157;27;89128;-70
2022/04/08 06:47:59;;;;;;;2.08;1.30;;;22.00;69.60;;;;;;6256782;27;87984;-70
2022/04/08 06:51:04;;;;;;;1.58;1.33;;;22.00;69.60;;;;;;6255246;28;89134;-70
2022/04/08 06:54:06;;;;;;;1.55;1.20;;;22.00;69.60;;;;;;6256204;27;89084;-70
2022/04/08 06:57:08;;;;;;;1.48;1.30;;;22.00;69.60;;;;;;6254365;27;89451;-69
2022/04/08 07:00:13;;;;;;;1.55;1.13;;;22.00;69.60;;;;;;6254427;28;87141;-70
2022/04/08 07:03:15;;;;;;;1.77;1.40;;;22.00;69.60;;;;;;6250108;28;88771;-69
2022/04/08 07:06:17;;;;;;;1.40;1.27;;;22.00;69.60;;;;;;6256834;28;89062;-70
2022/04/08 07:09:20;;;;;;;1.50;1.40;;;22.00;69.60;;;;;;6253218;27;89940;-70
2022/04/08 07:12:22;;;;;;;1.42;1.10;;;22.00;69.60;;;;;;6258034;27;87930;-69
2022/04/08 07:15:25;;;;;;;1.63;1.20;;;22.00;69.60;;;;;;6260221;27;88561;-70
2022/04/08 07:18:27;;;;;;;1.52;1.30;;;22.00;69.60;;;;;;6259292;27;89105;-70
2022/04/08 07:21:29;;;;;;;1.98;1.40;;;22.00;69.60;;;;;;6261327;27;88193;-70
2022/04/08 07:24:31;;;;;;;1.85;1.35;;;22.10;69.60;;;;;;6259289;27;90853;-69
2022/04/08 07:27:43;;;;;;;2.13;1.33;;;22.00;69.40;;;;;;6259227;27;89154;-70
2022/04/08 07:30:48;;;;;;;1.52;1.25;;;22.10;69.50;;;;;;6255663;27;88315;-69
2022/04/08 07:33:49;;;;;;;1.20;1.10;;;22.10;69.40;;;;;;6250652;28;89153;-70
2022/04/08 07:36:51;;;;;;;1.35;1.23;;;22.00;69.40;;;;;;6259018;27;89374;-69
2022/04/08 07:39:53;;;;;;;1.52;1.10;;;22.00;69.40;;;;;;6245404;27;90375;-70
2022/04/08 07:42:55;;;;;;;1.70;1.13;;;22.10;69.40;;;;;;6250112;28;89195;-69
2022/04/08 07:45:59;;;;;;;1.30;1.20;;;22.10;69.40;;;;;;6254161;27;89141;-70
2022/04/08 07:49:01;;;;;;;1.13;0.98;;;22.10;69.40;;;;;;6260023;27;89020;-70
2022/04/08 07:52:03;;;;;;;1.23;1.10;;;22.10;69.40;;;;;;6258884;28;89060;-70
2022/04/08 07:55:06;;;;;;;1.52;1.33;;;22.10;69.30;;;;;;6257882;27;89095;-70
2022/04/08 07:58:08;;;;;;;1.33;1.15;;;22.10;69.30;;;;;;6259445;27;89214;-70
2022/04/08 08:01:11;;;;;;;1.58;1.35;;;22.10;69.30;;;;;;6258699;27;88472;-70
2022/04/08 08:04:13;;;;;;;1.25;1.15;;;22.10;69.30;;;;;;6260686;27;89089;-69
2022/04/08 08:07:15;;;;;;;1.40;1.30;;;22.10;69.30;;;;;;6257401;27;91874;-70
2022/04/08 08:10:19;;;;;;;1.25;1.15;;;22.10;69.30;;;;;;6259367;27;90024;-70
2022/04/08 08:13:21;;;;;;;1.48;1.00;;;22.10;69.30;;;;;;6245440;27;89216;-70
2022/04/08 08:16:25;;;;;;;1.50;1.17;;;22.10;69.30;;;;;;6257337;27;89393;-70
2022/04/08 08:19:28;;;;;;;1.80;1.30;;;22.10;69.30;;;;;;6258829;27;89078;-71
2022/04/08 08:22:30;;;;;;;2.42;1.30;;;22.10;69.40;;;;;;6252913;27;89375;-70
2022/04/08 08:25:32;;;;;;;2.20;1.30;;;22.20;69.60;;;;;;6256997;27;89089;-71
2022/04/08 08:28:34;;;;;;;2.00;1.20;;;22.20;69.60;;;;;;6258130;27;87943;-70
2022/04/08 08:31:37;;;;;;;2.47;1.30;;;22.20;69.50;;;;;;6258974;27;88157;-71
2022/04/08 08:34:39;;;;;;;2.47;1.40;;;22.20;69.40;;;;;;6258472;27;89048;-71
2022/04/08 08:37:41;;;;;;;2.15;1.20;;;22.20;69.40;;;;;;6256772;27;89138;-70
2022/04/08 08:40:45;;;;;;;4.18;1.80;;;22.20;69.40;;;;;;6256488;27;89983;-71
2022/04/08 08:43:48;;;;;;;4.63;2.00;;;22.20;69.40;;;;;;6258679;27;88935;-70
2022/04/08 08:46:53;;;;;;;4.88;2.20;;;22.20;69.40;;;;;;6244190;27;89048;-70
2022/04/08 08:49:56;;;;;;;11.77;3.80;;;22.20;69.50;;;;;;6257510;27;89095;-70
2022/04/08 08:52:59;;;;;;;6.75;3.13;;;22.20;69.90;;;;;;6258248;27;89230;-70
2022/04/08 08:56:01;;;;;;;8.15;2.83;;;22.20;70.10;;;;;;6255960;27;89045;-70
2022/04/08 08:59:03;;;;;;;6.68;2.67;;;22.20;70.00;;;;;;6258778;27;89051;-71
2022/04/08 09:02:07;;;;;;;8.25;2.75;;;22.20;69.90;;;;;;6258138;27;88430;-71
2022/04/08 09:05:16;;;;;;;9.18;3.05;;;22.20;69.90;;;;;;6258559;27;89022;-71
2022/04/08 09:08:18;;;;;;;9.18;3.33;;;22.20;69.90;;;;;;6243640;27;89021;-70
2022/04/08 09:11:25;;;;;;;10.50;3.55;;;22.20;70.00;;;;;;6256013;27;89984;-70
2022/04/08 09:14:30;;;;;;;12.07;4.40;;;22.20;70.30;;;;;;6256828;27;90423;-70
2022/04/08 09:17:34;;;;;;;15.98;5.50;;;22.20;70.50;;;;;;6245358;28;89158;-70
2022/04/08 09:20:40;;;;;;;16.38;6.07;;;22.20;70.80;;;;;;6254888;27;88982;-71
2022/04/08 09:23:42;;;;;;;11.77;4.53;;;22.20;71.30;;;;;;6257379;28;87638;-70
2022/04/08 09:26:44;;;;;;;11.07;4.45;;;22.30;70.90;;;;;;6256407;27;90989;-70
2022/04/08 09:29:46;;;;;;;7.78;3.85;;;22.30;71.10;;;;;;6256920;28;88997;-70
2022/04/08 09:32:50;;;;;;;10.00;3.55;;;22.30;70.50;;;;;;6257888;27;88547;-70
2022/04/08 09:35:56;;;;;;;7.65;3.17;;;22.30;70.50;;;;;;6256452;27;88857;-70
2022/04/08 09:38:58;;;;;;;8.35;3.58;;;22.30;70.30;;;;;;6257194;27;88098;-70
2022/04/08 09:42:19;;;;;;;7.78;3.38;;;22.30;71.20;;;;;;6256519;27;90168;-70
2022/04/08 09:45:29;;;;;;;9.00;3.15;;;22.30;70.30;;;;;;6257611;27;89066;-70
2022/04/08 09:48:32;;;;;;;8.27;3.40;;;22.30;70.20;;;;;;6256203;27;87956;-70
2022/04/08 09:51:39;;;;;;;5.70;2.92;;;22.40;70.20;;;;;;6245747;27;89080;-71
2022/04/08 09:54:44;;;;;;;4.80;2.70;;;22.40;70.20;;;;;;6255743;27;89090;-70
2022/04/08 09:57:48;;;;;;;6.95;3.17;;;22.30;70.10;;;;;;6256828;27;89308;-70
2022/04/08 10:00:51;;;;;;;6.55;2.75;;;22.30;70.00;;;;;;6255962;27;89055;-70
2022/04/08 10:03:55;;;;;;;5.20;2.70;;;22.40;70.00;;;;;;6257386;27;88578;-70
2022/04/08 10:06:57;;;;;;;5.95;2.70;;;22.30;69.90;;;;;;6256969;27;89041;-70
2022/04/08 10:10:03;;;;;;;6.78;2.88;;;22.40;69.90;;;;;;6255610;27;89064;-70
2022/04/08 10:13:35;;;;;;;6.80;2.78;;;22.30;69.80;;;;;;6253759;27;90094;-70
2022/04/08 10:16:39;;;;;;;5.22;2.35;;;22.40;69.80;;;;;;6250112;27;89603;-70
2022/04/08 10:19:43;;;;;;;5.40;2.33;;;22.40;69.80;;;;;;6252142;27;87953;-71
2022/04/08 10:22:45;;;;;;;5.22;2.17;;;22.40;69.70;;;;;;6255399;27;89082;-70
2022/04/08 10:25:50;;;;;;;5.65;2.63;;;22.40;69.60;;;;;;6253806;27;89470;-71
2022/04/08 10:28:54;;;;;;;5.93;2.83;;;22.40;69.60;;;;;;6254990;27;89017;-70
2022/04/08 10:31:57;;;;;;;7.43;3.35;;;22.40;69.70;;;;;;6253827;27;89156;-70
2022/04/08 10:35:19;;;;;;;4.38;2.28;;;22.40;73.30;;;;;;6256378;27;88340;-70
2022/04/08 10:38:22;;;;;;;5.68;2.60;;;22.40;73.90;;;;;;6255693;27;89218;-70
2022/04/08 10:41:24;;;;;;;5.43;2.17;;;22.50;73.00;;;;;;6247311;27;88886;-70
2022/04/08 10:44:34;;;;;;;4.13;2.38;;;22.50;72.50;;;;;;6250499;27;89008;-70
2022/04/08 10:47:47;;;;;;;5.85;2.55;;;22.60;72.30;;;;;;6247606;27;88011;-71
2022/04/08 10:50:51;;;;;;;4.63;2.40;;;22.60;71.90;;;;;;6263836;27;88055;-70
2022/04/08 10:54:03;;;;;;;4.93;2.15;;;22.60;71.70;;;;;;6264691;27;88116;-70
2022/04/08 10:57:05;;;;;;;4.88;2.25;;;22.60;71.60;;;;;;6263449;27;89157;-70
2022/04/08 11:00:10;;;;;;;4.15;1.90;;;22.60;71.50;;;;;;6264567;27;89077;-71
2022/04/08 11:03:12;;;;;;;4.22;1.77;;;22.60;71.50;;;;;;6264555;27;88995;-70
2022/04/08 11:06:18;;;;;;;3.92;1.95;;;22.60;71.50;;;;;;6262975;27;88390;-70
2022/04/08 11:09:20;;;;;;;3.53;2.00;;;22.60;71.10;;;;;;6262900;27;89016;-70
2022/04/08 11:12:23;;;;;;;3.53;2.13;;;22.60;70.80;;;;;;6265501;27;89044;-71
2022/04/08 11:15:27;;;;;;;4.65;2.10;;;22.60;70.60;;;;;;6258100;28;90124;-70
2022/04/08 11:18:29;;;;;;;3.63;1.70;;;22.60;70.60;;;;;;6257878;27;88937;-70
2022/04/08 11:21:35;;;;;;;4.82;1.88;;;22.60;70.60;;;;;;6262877;27;88966;-71
2022/04/08 11:24:40;;;;;;;3.88;1.83;;;22.60;70.50;;;;;;6263371;27;89057;-70
2022/04/08 11:27:42;;;;;;;3.10;1.95;;;22.60;70.50;;;;;;6263517;27;89103;-70
2022/04/08 11:30:45;;;;;;;4.10;1.92;;;22.60;70.60;;;;;;6265435;27;89176;-71
2022/04/08 11:33:47;;;;;;;4.25;1.80;;;22.60;70.60;;;;;;6264554;28;88225;-71
2022/04/08 11:36:54;;;;;;;3.40;1.80;;;22.60;70.60;;;;;;6263840;27;87582;-70
2022/04/08 11:40:00;;;;;;;4.05;1.75;;;22.60;70.50;;;;;;6263217;27;89246;-70
2022/04/08 11:43:02;;;;;;;3.63;1.95;;;22.60;70.60;;;;;;6263899;27;89069;-71
2022/04/08 11:46:04;;;;;;;3.83;1.90;;;22.60;70.60;;;;;;6262422;27;90329;-71
2022/04/08 11:49:11;;;;;;;2.95;1.70;;;22.60;70.60;;;;;;6262337;27;89058;-70
2022/04/08 11:52:15;;;;;;;2.47;1.70;;;22.60;70.60;;;;;;6261856;27;89100;-71
2022/04/08 11:55:23;;;;;;;2.78;1.67;;;22.60;70.60;;;;;;6263889;28;89067;-71
2022/04/08 11:58:25;;;;;;;3.60;1.77;;;22.60;70.60;;;;;;6261126;27;89084;-70
2022/04/08 12:01:31;;;;;;;3.13;1.50;;;22.60;70.60;;;;;;6260072;27;89403;-70
2022/04/08 12:04:33;;;;;;;2.88;1.50;;;22.50;70.60;;;;;;6259931;27;89111;-70
2022/04/08 12:07:41;;;;;;;3.30;1.80;;;22.60;70.60;;;;;;6259580;27;88621;-70
2022/04/08 12:10:44;;;;;;;3.08;1.70;;;22.60;70.50;;;;;;6258176;27;89080;-71
2022/04/08 12:13:48;;;;;;;3.00;1.60;;;22.60;71.40;;;;;;6259971;27;89117;-70
2022/04/08 12:16:51;;;;;;;2.42;1.50;;;22.60;70.50;;;;;;6257796;27;89904;-70
2022/04/08 12:19:53;;;;;;;2.55;1.55;;;22.60;70.50;;;;;;6257961;27;89088;-71
2022/04/08 12:22:59;;;;;;;3.38;1.80;;;22.60;70.50;;;;;;6257580;27;89149;-70
2022/04/08 12:26:04;;;;;;;3.25;1.67;;;22.60;70.50;;;;;;6257503;27;89006;-71
2022/04/08 12:29:08;;;;;;;2.78;1.30;;;22.60;70.50;;;;;;6251993;27;89148;-70
2022/04/08 12:32:14;;;;;;;2.67;1.50;;;22.50;70.60;;;;;;6249634;27;89008;-70
2022/04/08 12:35:16;;;;;;;1.95;1.40;;;22.50;71.20;;;;;;6254883;28;89079;-71
2022/04/08 12:38:20;;;;;;;2.15;1.40;;;22.60;71.70;;;;;;6258146;27;88354;-72
2022/04/08 12:41:22;;;;;;;2.65;1.45;;;22.50;71.80;;;;;;6258051;27;88963;-70
2022/04/08 12:44:24;;;;;;;2.33;1.50;;;22.60;72.30;;;;;;6255740;27;89033;-69
2022/04/08 12:47:26;;;;;;;2.67;1.40;;;22.60;72.60;;;;;;6257677;28;90010;-71
2022/04/08 12:50:28;;;;;;;2.75;1.45;;;22.60;72.20;;;;;;6257311;27;89361;-70
2022/04/08 12:53:31;;;;;;;2.38;1.40;;;22.60;72.20;;;;;;6249711;27;87176;-70
2022/04/08 12:56:33;;;;;;;2.50;1.42;;;22.60;71.90;;;;;;6254940;27;89176;-69
2022/04/08 12:59:35;;;;;;;2.60;1.30;;;22.60;71.80;;;;;;6252913;27;89162;-69
2022/04/08 13:02:37;;;;;;;3.00;1.50;;;22.60;71.70;;;;;;6255542;27;89413;-68
2022/04/08 13:05:39;;;;;;;1.80;1.27;;;22.60;71.60;;;;;;6256899;27;88911;-69
2022/04/08 13:08:43;;;;;;;2.15;1.30;;;22.60;71.50;;;;;;6257717;27;87215;-69
2022/04/08 13:11:46;;;;;;;2.25;1.30;;;22.60;71.50;;;;;;6255722;27;89051;-69
2022/04/08 13:14:49;;;;;;;2.72;1.40;;;22.60;71.40;;;;;;6257867;27;89077;-69
2022/04/08 13:17:51;;;;;;;2.30;1.45;;;22.60;71.40;;;;;;6243796;28;89878;-69
2022/04/08 13:20:53;;;;;;;3.17;1.60;;;22.60;71.50;;;;;;6257910;27;89118;-69
2022/04/08 13:23:57;;;;;;;2.95;1.35;;;22.60;71.60;;;;;;6256946;27;89334;-69
2022/04/08 13:26:59;;;;;;;2.88;1.63;;;22.60;71.60;;;;;;6255290;27;87913;-69
2022/04/08 13:30:01;;;;;;;3.38;1.42;;;22.60;71.60;;;;;;6258316;27;89113;-69
2022/04/08 13:33:04;;;;;;;3.47;1.77;;;22.50;71.70;;;;;;6257433;27;89021;-69
2022/04/08 13:36:07;;;;;;;3.17;1.90;;;22.50;71.60;;;;;;6254553;27;89165;-69
2022/04/08 13:39:10;;;;;;;5.03;2.60;;;22.50;71.70;;;;;;6256794;27;88379;-69
2022/04/08 13:42:13;;;;;;;6.05;3.35;;;22.50;71.60;;;;;;6255938;27;89422;-69
2022/04/08 13:45:15;;;;;;;7.00;4.18;;;22.50;71.60;;;;;;6254505;27;89087;-69
2022/04/08 13:48:16;;;;;;;9.23;5.47;;;22.50;71.60;;;;;;6253801;27;90044;-69
2022/04/08 13:51:18;;;;;;;11.00;7.43;;;22.50;71.70;;;;;;6255897;27;89060;-69
2022/04/08 13:54:22;;;;;;;13.52;9.05;;;22.50;71.70;;;;;;6256068;27;89014;-69
2022/04/08 13:57:24;;;;;;;15.70;9.85;;;22.50;71.70;;;;;;6254228;27;89063;-69
2022/04/08 14:00:26;;;;;;;18.70;11.00;;;22.50;71.80;;;;;;6256508;27;88437;-69
2022/04/08 14:03:28;;;;;;;23.13;13.70;;;22.50;71.80;;;;;;6255735;27;90439;-68
2022/04/08 14:06:30;;;;;;;23.80;14.63;;;22.50;71.80;;;;;;6250657;27;88994;-69
2022/04/08 14:09:34;;;;;;;26.25;15.75;;;22.50;71.90;;;;;;6253561;27;88677;-69
2022/04/08 14:12:36;;;;;;;30.52;18.17;;;22.40;72.00;;;;;;6255019;27;89100;-69
2022/04/08 14:15:38;;;;;;;31.83;18.38;;;22.50;72.10;;;;;;6251835;27;88990;-69
2022/04/08 14:18:40;;;;;;;33.58;20.73;;;22.40;72.10;;;;;;6251626;27;90410;-69
2022/04/08 14:21:42;;;;;;;34.30;21.73;;;22.50;72.20;;;;;;6252258;27;89046;-69
2022/04/08 14:24:45;;;;;;;40.72;23.85;;;22.40;72.50;;;;;;6253427;27;89108;-69
2022/04/08 14:27:47;;;;;;;40.72;24.60;;;22.50;72.30;;;;;;6256353;27;89079;-69
2022/04/08 14:30:49;;;;;;;44.10;26.77;;;22.50;72.50;;;;;;6254452;27;89246;-70
2022/04/08 14:33:52;;;;;;;46.63;27.30;;;22.50;72.80;;;;;;6255663;27;89156;-69
2022/04/08 14:36:54;;;;;;;48.20;29.52;;;22.50;73.10;;;;;;6254472;27;89157;-69
2022/04/08 14:39:57;;;;;;;52.15;31.35;;;22.50;73.50;;;;;;6256773;27;87159;-70
2022/04/08 14:43:01;;;;;;;68.35;40.05;;;22.50;73.40;;;;;;6252774;27;87676;-69
2022/04/08 14:46:03;;;;;;;71.90;40.17;;;22.50;73.70;;;;;;6254649;27;89064;-69
2022/04/08 14:49:05;;;;;;;68.18;40.00;;;22.50;74.20;;;;;;6254768;27;90029;-69
2022/04/08 14:52:07;;;;;;;68.78;40.53;;;22.50;74.30;;;;;;6254075;27;89105;-69
2022/04/08 14:55:11;;;;;;;74.53;42.15;;;22.50;74.10;;;;;;6241391;28;89377;-69
2022/04/08 14:58:13;;;;;;;68.03;41.05;;;22.50;73.90;;;;;;6254876;27;89318;-69
2022/04/08 15:01:15;;;;;;;69.60;40.78;;;22.50;74.00;;;;;;6255807;28;89602;-69
2022/04/08 15:04:17;;;;;;;74.28;41.83;;;22.50;74.20;;;;;;6255720;27;88449;-69
2022/04/08 15:07:20;;;;;;;73.68;43.35;;;22.50;74.40;;;;;;6253572;27;89338;-69
2022/04/08 15:10:23;;;;;;;74.85;43.70;;;22.50;74.40;;;;;;6256345;27;88615;-69
2022/04/08 15:13:25;;;;;;;75.55;43.47;;;22.50;74.40;;;;;;6254557;27;88270;-69
2022/04/08 15:16:27;;;;;;;79.20;45.90;;;22.50;74.40;;;;;;6255212;27;88010;-69
2022/04/08 15:19:29;;;;;;;73.22;43.47;;;22.50;74.50;;;;;;6253201;27;90056;-69
2022/04/08 15:22:31;;;;;;;77.72;46.05;;;22.50;74.50;;;;;;6252824;28;89083;-68
2022/04/08 15:25:35;;;;;;;78.00;46.45;;;22.50;74.60;;;;;;6253032;27;89425;-68
2022/04/08 15:28:37;;;;;;;80.75;46.95;;;22.50;74.60;;;;;;6255274;27;88942;-69
2022/04/08 15:31:43;;;;;;;75.25;46.97;;;22.50;74.60;;;;;;6254158;27;88254;-69
2022/04/08 15:34:45;;;;;;;76.78;47.03;;;22.50;74.60;;;;;;6257398;27;88384;-68
2022/04/08 15:37:49;;;;;;;76.45;47.10;;;22.50;74.60;;;;;;6257495;27;88107;-69
2022/04/08 15:40:52;;;;;;;80.85;47.63;;;22.50;74.70;;;;;;6257727;27;88343;-69
2022/04/08 15:43:54;;;;;;;82.60;49.03;;;22.50;74.70;;;;;;6257449;27;88651;-70
2022/04/08 15:46:56;;;;;;;82.63;49.83;;;22.50;74.70;;;;;;6257031;27;89063;-69